createdAt,value
2022-11-21T00:00:59.975Z,99733.45
2022-11-21T00:03:34.291Z,99726.20
2022-11-21T00:06:06.416Z,99727.17
2022-11-21T00:08:38.373Z,99728.08
2022-11-21T00:11:10.330Z,99732.59
2022-11-21T00:13:42.363Z,99727.43
2022-11-21T00:16:16.113Z,99729.33
2022-11-21T00:18:49.547Z,99722.76
2022-11-21T00:21:23.093Z,99725.00
2022-11-21T00:23:56.408Z,99725.55
2022-11-21T00:26:28.283Z,99725.34
2022-11-21T00:29:00.730Z,99725.97
2022-11-21T00:31:32.946Z,99726.16
2022-11-21T00:34:04.697Z,99726.83
2022-11-21T00:36:36.538Z,99720.91
2022-11-21T00:39:09.603Z,99716.98
2022-11-21T00:41:42.241Z,99718.04
2022-11-21T00:44:13.979Z,99695.09
2022-11-21T00:46:46.952Z,99717.73
2022-11-21T00:49:18.629Z,99718.33
2022-11-21T00:51:51.006Z,99717.46
2022-11-21T00:54:22.859Z,99717.09
2022-11-21T00:56:55.014Z,99718.42
2022-11-21T00:59:27.663Z,99721.28
2022-11-21T01:02:00.103Z,99720.47
2022-11-21T01:04:40.684Z,99722.80
2022-11-21T01:07:15.010Z,99717.95
2022-11-21T01:09:48.250Z,99721.13
2022-11-21T01:12:27.187Z,99717.48
2022-11-21T01:15:00.683Z,99712.00
2022-11-21T01:17:35.891Z,99705.48
2022-11-21T01:20:12.620Z,99697.66
2022-11-21T01:22:44.342Z,99717.06
2022-11-21T01:25:16.251Z,99721.45
2022-11-21T01:27:50.040Z,99722.71
2022-11-21T01:30:21.260Z,99716.22
2022-11-21T01:32:53.610Z,99711.39
2022-11-21T01:35:26.393Z,99710.27
2022-11-21T01:37:58.661Z,99704.70
2022-11-21T01:40:31.282Z,99704.80
2022-11-21T01:43:12.883Z,99701.85
2022-11-21T01:46:00.984Z,99704.40
2022-11-21T01:48:40.262Z,99707.39
2022-11-21T01:51:20.295Z,99710.03
2022-11-21T01:54:01.552Z,99705.34
2022-11-21T01:56:39.661Z,99706.79
2022-11-21T01:59:22.863Z,99702.55
2022-11-21T02:01:57.139Z,99696.19
2022-11-21T02:04:33.196Z,99700.33
2022-11-21T02:07:07.996Z,99699.33
2022-11-21T02:09:44.483Z,99699.48
2022-11-21T02:12:24.867Z,99697.79
2022-11-21T02:15:01.712Z,99703.46
2022-11-21T02:17:35.339Z,99700.23
2022-11-21T02:31:40.197Z,99694.57
2022-11-21T02:34:12.649Z,99690.56
2022-11-21T02:36:48.907Z,99686.15
2022-11-21T02:39:28.459Z,99674.80
2022-11-21T02:42:06.895Z,99667.94
2022-11-21T02:44:49.621Z,99665.33
2022-11-21T02:47:23.603Z,99659.96
2022-11-21T02:50:03.650Z,99657.02
2022-11-21T02:52:35.418Z,99652.88
2022-11-21T02:55:11.650Z,99649.91
2022-11-21T02:57:44.622Z,99642.77
2022-11-21T03:00:22.702Z,99644.67
2022-11-21T03:02:56.539Z,99645.76
2022-11-21T03:05:28.952Z,99643.86
2022-11-21T03:08:04.029Z,99641.02
2022-11-21T03:10:36.037Z,99641.61
2022-11-21T03:13:08.843Z,99623.84
2022-11-21T03:15:41.043Z,99615.85
2022-11-21T03:18:12.821Z,99615.77
2022-11-21T03:20:44.609Z,99614.15
2022-11-21T03:23:16.446Z,99608.98
2022-11-21T03:25:50.983Z,99608.69
2022-11-21T03:28:24.062Z,99610.65
2022-11-21T03:30:56.710Z,99613.88
2022-11-21T03:33:29.177Z,99620.85
2022-11-21T03:36:01.370Z,99623.69
2022-11-21T03:38:35.962Z,99620.81
2022-11-21T03:41:27.082Z,99618.98
2022-11-21T03:43:59.159Z,99612.83
2022-11-21T03:46:36.178Z,99604.35
2022-11-21T03:49:09.585Z,99596.06
2022-11-21T03:51:43.557Z,99591.31
2022-11-21T03:54:16.022Z,99583.30
2022-11-21T03:56:49.631Z,99580.95
2022-11-21T03:59:21.313Z,99586.10
2022-11-21T04:01:54.233Z,99587.86
2022-11-21T04:04:26.511Z,99590.40
2022-11-21T04:06:59.320Z,99585.98
2022-11-21T04:09:32.401Z,99585.34
2022-11-21T04:12:07.708Z,99580.48
2022-11-21T04:14:40.167Z,99579.92
2022-11-21T04:17:12.093Z,99577.23
2022-11-21T04:19:46.214Z,99579.50
2022-11-21T04:22:18.338Z,99576.09
2022-11-21T04:24:50.182Z,99573.43
2022-11-21T04:27:22.089Z,99572.20
2022-11-21T04:29:53.898Z,99565.25
2022-11-21T04:32:26.356Z,99565.04
2022-11-21T04:34:58.994Z,99556.11
2022-11-21T04:37:31.861Z,99548.59
2022-11-21T04:40:03.943Z,99550.85
2022-11-21T04:42:36.096Z,99551.54
2022-11-21T04:45:14.043Z,99545.75
2022-11-21T04:47:48.307Z,99542.83
2022-11-21T04:50:21.909Z,99540.61
2022-11-21T04:52:56.688Z,99538.07
2022-11-21T04:55:35.277Z,99531.88
2022-11-21T04:58:07.368Z,99535.17
2022-11-21T05:00:39.489Z,99536.45
2022-11-21T05:03:11.553Z,99531.20
2022-11-21T05:05:44.078Z,99524.48
2022-11-21T05:08:20.861Z,99523.03
2022-11-21T05:11:09.148Z,99520.49
2022-11-21T05:13:40.856Z,99520.84
2022-11-21T05:16:12.833Z,99513.88
2022-11-21T05:18:44.740Z,99512.83
2022-11-21T05:21:17.577Z,99515.30
2022-11-21T05:23:49.752Z,99512.48
2022-11-21T05:26:23.546Z,99510.11
2022-11-21T05:28:55.241Z,99511.67
2022-11-21T05:31:27.314Z,99509.27
2022-11-21T05:33:59.877Z,99505.27
2022-11-21T05:36:35.162Z,99498.73
2022-11-21T05:39:11.150Z,99494.02
2022-11-21T05:41:44.186Z,99493.09
2022-11-21T05:44:15.959Z,99490.90
2022-11-21T05:46:50.500Z,99487.42
2022-11-21T05:49:24.273Z,99488.77
2022-11-21T05:51:56.387Z,99489.95
2022-11-21T05:54:28.645Z,99489.08
2022-11-21T05:57:01.600Z,99487.46
2022-11-21T05:59:33.817Z,99479.39
2022-11-21T06:02:23.505Z,99478.17
2022-11-21T06:04:57.923Z,99475.17
2022-11-21T06:07:30.169Z,99476.17
2022-11-21T06:10:03.530Z,99478.18
2022-11-21T06:12:35.927Z,99481.30
2022-11-21T06:15:11.766Z,99480.52
2022-11-21T06:17:44.151Z,99485.36
2022-11-21T06:20:16.464Z,99480.23
2022-11-21T06:22:53.502Z,99482.42
2022-11-21T06:25:25.596Z,99483.98
2022-11-21T06:27:57.601Z,99466.17
2022-11-21T06:30:30.049Z,99476.64
2022-11-21T06:33:04.291Z,99471.51
2022-11-21T06:35:42.176Z,99468.17
2022-11-21T06:38:22.002Z,99462.17
2022-11-21T06:40:56.162Z,99455.99
2022-11-21T06:43:29.989Z,99457.65
2022-11-21T06:46:04.877Z,99462.13
2022-11-21T06:48:40.532Z,99466.58
2022-11-21T06:51:22.967Z,99468.29
2022-11-21T06:53:58.223Z,99449.88
2022-11-21T06:56:34.007Z,99459.09
2022-11-21T06:59:09.082Z,99456.46
2022-11-21T07:01:41.017Z,99457.16
2022-11-21T07:04:15.138Z,99454.95
2022-11-21T07:06:47.286Z,99454.45
2022-11-21T07:09:32.740Z,99456.23
2022-11-21T07:12:25.560Z,99461.67
2022-11-21T07:14:57.358Z,99466.28
2022-11-21T07:17:29.528Z,99469.91
2022-11-21T07:20:01.280Z,99472.67
2022-11-21T07:22:33.341Z,99467.69
2022-11-21T07:25:08.094Z,99457.23
2022-11-21T07:27:38.482Z,99458.77
2022-11-21T07:30:18.723Z,99452.39
2022-11-21T07:32:56.078Z,99445.41
2022-11-21T07:35:29.702Z,99444.29
2022-11-21T07:38:04.055Z,99444.73
2022-11-21T07:40:36.140Z,99442.08
2022-11-21T07:43:11.017Z,99441.66
2022-11-21T07:45:43.959Z,99444.94
2022-11-21T07:48:17.035Z,99443.52
2022-11-21T07:50:49.368Z,99448.10
2022-11-21T07:53:21.150Z,99446.45
2022-11-21T07:55:55.048Z,99444.25
2022-11-21T07:58:30.796Z,99445.36
2022-11-21T08:01:06.508Z,99441.35
2022-11-21T08:03:38.711Z,99423.71
2022-11-21T08:06:14.069Z,99433.09
2022-11-21T08:08:45.756Z,99427.96
2022-11-21T08:11:17.961Z,99429.61
2022-11-21T08:13:50.995Z,99429.91
2022-11-21T08:16:28.989Z,99426.80
2022-11-21T08:19:01.014Z,99429.38
2022-11-21T08:21:32.958Z,99430.80
2022-11-21T08:24:04.990Z,99426.73
2022-11-21T08:26:36.980Z,99426.23
2022-11-21T08:29:08.838Z,99428.27
2022-11-21T08:31:41.322Z,99433.48
2022-11-21T08:34:14.772Z,99428.26
2022-11-21T08:36:48.100Z,99433.27
2022-11-21T08:39:20.241Z,99435.70
2022-11-21T08:42:04.745Z,99436.38
2022-11-21T08:44:37.958Z,99431.19
2022-11-21T08:47:11.063Z,99437.27
2022-11-21T08:49:43.630Z,99439.02
2022-11-21T08:52:18.331Z,99440.45
2022-11-21T08:54:48.606Z,99444.21
2022-11-21T08:57:20.630Z,99440.21
2022-11-21T08:59:52.589Z,99440.13
2022-11-21T09:02:24.971Z,99440.45
2022-11-21T09:04:56.753Z,99436.81
2022-11-21T09:07:28.808Z,99439.61
2022-11-21T09:10:01.848Z,99444.60
2022-11-21T09:12:34.971Z,99441.98
2022-11-21T09:15:29.411Z,99442.67
2022-11-21T09:18:05.487Z,99448.10
2022-11-21T09:20:42.428Z,99445.86
2022-11-21T09:23:18.199Z,99442.83
2022-11-21T09:25:50.078Z,99440.04
2022-11-21T09:28:22.706Z,99437.42
2022-11-21T09:30:56.430Z,99435.71
2022-11-21T09:33:28.167Z,99434.71
2022-11-21T09:36:02.630Z,99439.90
2022-11-21T09:38:34.634Z,99443.27
2022-11-21T09:41:34.730Z,99447.67
2022-11-21T09:44:18.820Z,99443.59
2022-11-21T09:46:57.690Z,99441.90
2022-11-21T09:49:33.837Z,99438.71
2022-11-21T09:52:06.719Z,99441.80
2022-11-21T09:54:50.423Z,99445.58
2022-11-21T09:57:27.523Z,99442.70
2022-11-21T10:00:05.773Z,99441.27
2022-11-21T10:02:44.677Z,99439.80
2022-11-21T10:05:17.691Z,99437.35
2022-11-21T10:07:53.697Z,99435.90
2022-11-21T10:10:50.815Z,99434.49
2022-11-21T10:13:39.670Z,99429.98
2022-11-21T10:16:21.084Z,99431.07
2022-11-21T10:19:23.021Z,99431.08
2022-11-21T10:22:19.004Z,99430.00
2022-11-21T10:24:58.980Z,99435.98
2022-11-21T10:27:39.427Z,99435.66
2022-11-21T10:30:19.560Z,99437.41
2022-11-21T10:33:00.927Z,99437.36
2022-11-21T10:35:41.483Z,99441.54
2022-11-21T10:38:22.632Z,99447.89
2022-11-21T10:41:03.192Z,99448.27
2022-11-21T10:44:01.258Z,99448.39
2022-11-21T10:46:33.637Z,99449.04
2022-11-21T10:49:09.670Z,99446.10
2022-11-21T10:51:52.173Z,99445.82
2022-11-21T10:54:37.197Z,99444.04
2022-11-21T10:57:15.003Z,99440.44
2022-11-21T11:00:02.036Z,99435.23
2022-11-21T11:02:33.841Z,99437.37
2022-11-21T11:05:22.423Z,99434.23
2022-11-21T11:08:06.598Z,99430.79
2022-11-21T11:10:43.210Z,99437.05
2022-11-21T11:13:50.631Z,99429.09
2022-11-21T11:16:26.162Z,99440.77
2022-11-21T11:19:01.983Z,99436.91
2022-11-21T11:21:46.113Z,99446.41
2022-11-21T11:24:28.638Z,99448.22
2022-11-21T11:27:04.187Z,99450.16
2022-11-21T11:29:50.826Z,99445.91
2022-11-21T11:32:25.299Z,99448.65
2022-11-21T11:35:11.366Z,99444.33
2022-11-21T11:37:45.148Z,99448.38
2022-11-21T11:40:29.823Z,99449.91
2022-11-21T11:43:41.411Z,99456.82
2022-11-21T11:46:53.592Z,99451.83
2022-11-21T11:49:59.473Z,99458.31
2022-11-21T11:52:41.592Z,99468.64
2022-11-21T11:55:21.581Z,99470.19
2022-11-21T11:57:58.208Z,99472.17
2022-11-21T12:00:40.812Z,99470.77
2022-11-21T12:03:20.169Z,99474.27
2022-11-21T12:06:14.347Z,99472.41
2022-11-21T12:08:55.595Z,99473.63
2022-11-21T12:11:53.897Z,99476.32
2022-11-21T12:15:03.691Z,99481.03
2022-11-21T12:17:44.548Z,99490.04
2022-11-21T12:20:22.238Z,99490.10
2022-11-21T12:22:56.460Z,99491.66
2022-11-21T12:25:34.139Z,99494.41
2022-11-21T12:28:18.294Z,99492.60
2022-11-21T12:31:04.201Z,99478.79
2022-11-21T12:33:44.624Z,99496.29
2022-11-21T12:36:33.778Z,99502.48
2022-11-21T12:39:29.271Z,99500.52
2022-11-21T12:42:30.687Z,99503.05
2022-11-21T12:45:27.422Z,99503.11
2022-11-21T12:48:39.436Z,99509.38
2022-11-21T12:52:02.846Z,99506.63
2022-11-21T12:55:03.452Z,99507.02
2022-11-21T12:57:49.400Z,99503.13
2022-11-21T13:00:31.411Z,99506.09
2022-11-21T13:03:48.167Z,99506.38
2022-11-21T13:06:27.475Z,99511.06
2022-11-21T13:09:05.361Z,99516.04
2022-11-21T13:12:01.533Z,99515.67
2022-11-21T13:14:48.788Z,99516.98
2022-11-21T13:17:37.534Z,99518.58
2022-11-21T13:20:20.788Z,99526.27
2022-11-21T13:23:00.846Z,99524.55
2022-11-21T13:25:50.359Z,99527.19
2022-11-21T13:28:39.627Z,99533.52
2022-11-21T13:31:45.184Z,99530.23
2022-11-21T13:34:38.934Z,99532.10
2022-11-21T13:38:01.101Z,99535.38
2022-11-21T13:41:05.327Z,99533.02
2022-11-21T13:43:37.946Z,99538.45
2022-11-21T13:46:10.568Z,99540.52
2022-11-21T13:49:15.173Z,99538.80
2022-11-21T13:51:54.330Z,99543.44
2022-11-21T13:54:48.708Z,99547.03
2022-11-21T13:58:03.999Z,99534.05
2022-11-21T14:00:51.041Z,99554.14
2022-11-21T14:03:56.034Z,99552.84
2022-11-21T14:06:43.859Z,99558.93
2022-11-21T14:09:25.275Z,99545.05
2022-11-21T14:12:03.171Z,99561.58
2022-11-21T14:14:41.588Z,99570.52
2022-11-21T14:17:30.076Z,99572.61
2022-11-21T14:20:11.428Z,99576.56
2022-11-21T14:22:49.372Z,99580.50
2022-11-21T14:25:28.078Z,99584.44
2022-11-21T14:28:02.665Z,99588.54
2022-11-21T14:30:39.158Z,99595.70
2022-11-21T14:33:50.005Z,99600.35
2022-11-21T14:36:25.139Z,99602.38
2022-11-21T14:39:34.847Z,99603.54
2022-11-21T14:41:53.961Z,99605.58
2022-11-21T14:44:26.966Z,99602.29
2022-11-21T14:47:18.535Z,99607.41
2022-11-21T14:49:55.348Z,99611.83
2022-11-21T14:52:32.272Z,99609.98
2022-11-21T14:55:28.978Z,99610.23
2022-11-21T14:58:01.249Z,99594.88
2022-11-21T15:00:58.523Z,99606.10
2022-11-21T15:03:26.243Z,99608.79
2022-11-21T15:06:07.936Z,99616.09
2022-11-21T15:09:33.330Z,99619.18
2022-11-21T15:11:39.233Z,99622.44
2022-11-21T15:14:25.432Z,99629.01
2022-11-21T15:16:59.722Z,99631.69
2022-11-21T15:19:38.062Z,99633.00
2022-11-21T15:22:25.199Z,99630.80
2022-11-21T15:25:12.852Z,99633.85
2022-11-21T15:27:45.321Z,99638.41
2022-11-21T15:30:30.823Z,99636.53
2022-11-21T15:33:11.591Z,99622.94
2022-11-21T15:35:56.824Z,99638.38
2022-11-21T15:38:44.918Z,99636.34
2022-11-21T15:41:33.697Z,99634.21
2022-11-21T15:44:24.109Z,99626.10
2022-11-21T15:46:56.082Z,99619.94
2022-11-21T15:49:34.856Z,99619.37
2022-11-21T15:52:15.654Z,99616.50
2022-11-21T15:54:48.886Z,99605.81
2022-11-21T15:57:22.299Z,99621.98
2022-11-21T15:59:56.501Z,99624.66
2022-11-21T16:02:49.210Z,99626.15
2022-11-21T16:05:22.046Z,99626.66
2022-11-21T16:07:54.512Z,99627.77
2022-11-21T16:10:28.114Z,99624.60
2022-11-21T16:13:01.143Z,99622.61
2022-11-21T16:15:33.551Z,99621.18
2022-11-21T16:18:05.428Z,99618.06
2022-11-21T16:20:38.714Z,99623.06
2022-11-21T16:23:12.929Z,99619.45
2022-11-21T16:25:55.962Z,99618.83
2022-11-21T16:28:28.092Z,99619.08
2022-11-21T16:31:03.002Z,99612.11
2022-11-21T16:33:40.498Z,99610.45
2022-11-21T16:36:16.437Z,99610.63
2022-11-21T16:38:48.957Z,99609.02
2022-11-21T16:41:23.708Z,99610.97
2022-11-21T16:43:57.188Z,99614.77
2022-11-21T16:46:30.454Z,99612.71
2022-11-21T16:49:05.371Z,99612.81
2022-11-21T16:51:36.489Z,99614.02
2022-11-21T16:54:09.992Z,99613.08
2022-11-21T16:56:41.934Z,99617.55
2022-11-21T16:59:16.188Z,99624.00
2022-11-21T17:01:48.917Z,99617.50
2022-11-21T17:04:21.764Z,99612.48
2022-11-21T17:06:54.730Z,99611.69
2022-11-21T17:09:27.893Z,99596.14
2022-11-21T17:12:02.093Z,99614.17
2022-11-21T17:14:34.089Z,99618.02
2022-11-21T17:17:07.536Z,99621.73
2022-11-21T17:19:39.475Z,99617.18
2022-11-21T17:22:12.139Z,99619.89
2022-11-21T17:24:44.346Z,99624.65
2022-11-21T17:27:16.442Z,99625.45
2022-11-21T17:29:48.588Z,99630.29
2022-11-21T17:32:20.884Z,99630.15
2022-11-21T17:34:53.746Z,99617.89
2022-11-21T17:37:25.999Z,99628.59
2022-11-21T17:39:57.796Z,99633.42
2022-11-21T17:42:30.092Z,99638.56
2022-11-21T17:45:02.440Z,99629.00
2022-11-21T17:47:37.569Z,99642.84
2022-11-21T17:50:11.646Z,99636.92
2022-11-21T17:52:47.035Z,99654.50
2022-11-21T17:55:21.342Z,99659.15
2022-11-21T17:57:53.226Z,99655.89
2022-11-21T18:00:27.088Z,99649.91
2022-11-21T18:03:00.364Z,99657.95
2022-11-21T18:05:35.049Z,99654.36
2022-11-21T18:08:07.832Z,99654.83
2022-11-21T18:10:43.992Z,99653.36
2022-11-21T18:13:20.305Z,99653.08
2022-11-21T18:15:53.816Z,99653.74
2022-11-21T18:18:28.239Z,99653.83
2022-11-21T18:21:06.813Z,99649.64
2022-11-21T18:23:45.336Z,99647.58
2022-11-21T18:26:23.418Z,99649.69
2022-11-21T18:29:34.430Z,99647.23
2022-11-21T18:31:53.697Z,99649.14
2022-11-21T18:34:26.207Z,99649.02
2022-11-21T18:37:00.039Z,99650.52
2022-11-21T18:39:33.311Z,99650.48
2022-11-21T18:42:07.168Z,99654.15
2022-11-21T18:44:39.262Z,99654.95
2022-11-21T18:47:20.439Z,99658.72
2022-11-21T18:49:54.177Z,99658.64
2022-11-21T18:52:27.601Z,99663.34
2022-11-21T18:55:01.519Z,99665.02
2022-11-21T18:57:33.626Z,99673.81
2022-11-21T19:00:09.451Z,99676.45
2022-11-21T19:02:41.605Z,99680.71
2022-11-21T19:05:20.351Z,99680.89
2022-11-21T19:07:54.810Z,99676.05
2022-11-21T19:10:42.618Z,99676.33
2022-11-21T19:13:17.528Z,99674.36
2022-11-21T19:15:50.283Z,99683.86
2022-11-21T19:18:22.392Z,99681.77
2022-11-21T19:20:54.980Z,99681.01
2022-11-21T19:23:31.378Z,99681.79
2022-11-21T19:26:04.054Z,99677.81
2022-11-21T19:28:38.595Z,99682.14
2022-11-21T19:31:14.100Z,99682.23
2022-11-21T19:33:48.500Z,99678.67
2022-11-21T19:36:22.737Z,99678.04
2022-11-21T19:38:55.174Z,99681.87
2022-11-21T19:41:31.053Z,99679.73
2022-11-21T19:44:04.323Z,99675.56
2022-11-21T19:46:40.404Z,99676.95
2022-11-21T19:49:14.613Z,99674.79
2022-11-21T19:51:46.887Z,99673.88
2022-11-21T19:54:20.484Z,99670.73
2022-11-21T19:56:53.838Z,99667.59
2022-11-21T19:59:28.778Z,99657.60
2022-11-21T20:02:02.904Z,99654.36
2022-11-21T20:04:36.386Z,99651.81
2022-11-21T20:07:08.801Z,99652.46
2022-11-21T20:09:44.926Z,99652.55
2022-11-21T20:12:17.687Z,99651.14
2022-11-21T20:14:50.212Z,99651.14
2022-11-21T20:17:25.668Z,99646.73
2022-11-21T20:20:00.786Z,99647.85
2022-11-21T20:22:34.288Z,99634.02
2022-11-21T20:25:11.455Z,99642.84
2022-11-21T20:27:43.948Z,99643.23
2022-11-21T20:30:17.855Z,99640.13
2022-11-21T20:32:50.914Z,99634.32
2022-11-21T20:35:23.656Z,99654.77
2022-11-21T20:37:57.429Z,99654.61
2022-11-21T20:40:30.339Z,99655.88
2022-11-21T20:43:04.360Z,99657.42
2022-11-21T20:46:07.689Z,99661.69
2022-11-21T20:48:29.478Z,99661.62
2022-11-21T20:52:09.570Z,99668.41
2022-11-21T20:54:01.645Z,99678.27
2022-11-21T20:56:39.399Z,99675.92
2022-11-21T20:59:14.682Z,99674.11
2022-11-21T21:01:48.424Z,99673.89
2022-11-21T21:04:20.475Z,99675.79
2022-11-21T21:06:52.557Z,99657.55
2022-11-21T21:09:24.519Z,99666.82
2022-11-21T21:11:57.806Z,99656.86
2022-11-21T21:14:31.515Z,99649.03
2022-11-21T21:17:04.123Z,99649.66
2022-11-21T21:19:37.251Z,99656.85
2022-11-21T21:22:10.895Z,99660.35
2022-11-21T21:24:43.087Z,99663.48
2022-11-21T21:27:15.040Z,99650.24
2022-11-21T21:29:47.134Z,99644.19
2022-11-21T21:32:19.262Z,99643.02
2022-11-21T21:34:51.126Z,99635.89
2022-11-21T21:37:23.354Z,99626.79
2022-11-21T21:39:55.875Z,99630.79
2022-11-21T21:42:29.106Z,99622.20
2022-11-21T21:45:02.723Z,99621.91
2022-11-21T21:47:34.760Z,99625.22
2022-11-21T21:50:15.606Z,99627.61
2022-11-21T21:52:49.085Z,99629.84
2022-11-21T21:55:21.050Z,99632.33
2022-11-21T21:57:53.307Z,99626.25
2022-11-21T22:00:25.335Z,99626.11
2022-11-21T22:02:57.070Z,99618.50
2022-11-21T22:05:28.897Z,99611.44
2022-11-21T22:08:02.789Z,99595.15
2022-11-21T22:10:34.707Z,99589.25
2022-11-21T22:13:08.462Z,99581.36
2022-11-21T22:15:40.975Z,99588.19
2022-11-21T22:18:13.159Z,99585.71
2022-11-21T22:20:45.951Z,99584.88
2022-11-21T22:23:18.111Z,99571.38
2022-11-21T22:25:56.072Z,99586.75
2022-11-21T22:28:35.640Z,99593.05
2022-11-21T22:31:10.696Z,99590.44
2022-11-21T22:33:45.034Z,99594.29
2022-11-21T22:36:19.439Z,99595.77
2022-11-21T22:38:55.157Z,99600.09
2022-11-21T22:41:28.716Z,99602.11
2022-11-21T22:44:03.355Z,99610.92
2022-11-21T22:46:36.307Z,99611.48
2022-11-21T22:49:08.737Z,99610.83
2022-11-21T22:51:41.113Z,99615.95
2022-11-21T22:54:14.999Z,99623.30
2022-11-21T22:56:46.777Z,99624.07
2022-11-21T22:59:18.954Z,99621.16
2022-11-21T23:01:50.868Z,99631.85
2022-11-21T23:04:23.365Z,99637.54
2022-11-21T23:06:55.246Z,99645.56
2022-11-21T23:09:44.906Z,99643.40
2022-11-21T23:12:17.024Z,99644.80
2022-11-21T23:14:49.692Z,99654.80
2022-11-21T23:17:21.926Z,99661.21
2022-11-21T23:19:54.537Z,99666.93
2022-11-21T23:22:26.326Z,99664.34
2022-11-21T23:24:58.938Z,99659.96
2022-11-21T23:27:30.797Z,99661.59
2022-11-21T23:30:06.319Z,99667.20
2022-11-21T23:32:38.391Z,99676.98
2022-11-21T23:35:11.744Z,99683.40
2022-11-21T23:37:43.731Z,99692.73
2022-11-21T23:40:21.429Z,99696.70
2022-11-21T23:42:55.802Z,99702.56
2022-11-21T23:45:27.982Z,99709.10
2022-11-21T23:48:00.383Z,99704.70
2022-11-21T23:50:33.094Z,99692.78
2022-11-21T23:53:07.533Z,99691.13
2022-11-21T23:55:41.364Z,99684.45
2022-11-21T23:58:13.946Z,99677.48
